createdAt,value
2023-02-02T00:00:38.350Z,7.60
2023-02-02T00:04:40.063Z,7.59
2023-02-02T00:08:41.798Z,7.58
2023-02-02T00:12:43.484Z,7.58
2023-02-02T00:16:55.518Z,7.61
2023-02-02T00:20:57.225Z,7.64
2023-02-02T00:24:59.004Z,7.65
2023-02-02T00:29:00.920Z,7.66
2023-02-02T00:33:02.704Z,7.67
2023-02-02T00:37:04.535Z,7.68
2023-02-02T00:41:07.399Z,7.68
2023-02-02T00:45:17.166Z,7.70
2023-02-02T00:49:20.219Z,7.69
2023-02-02T00:53:21.925Z,7.69
2023-02-02T00:57:23.817Z,7.68
2023-02-02T01:01:25.671Z,7.71
2023-02-02T01:05:27.506Z,7.71
2023-02-02T01:09:29.382Z,7.68
2023-02-02T01:13:31.307Z,7.65
2023-02-02T01:17:33.744Z,7.64
2023-02-02T01:21:35.469Z,7.64
2023-02-02T01:25:38.686Z,7.62
2023-02-02T01:29:40.548Z,7.61
2023-02-02T01:33:43.912Z,7.60
2023-02-02T01:37:45.783Z,7.59
2023-02-02T01:41:48.497Z,7.59
2023-02-02T01:45:52.129Z,7.59
2023-02-02T01:49:55.453Z,7.57
2023-02-02T01:53:59.456Z,7.57
2023-02-02T01:58:16.474Z,7.59
2023-02-02T02:02:18.620Z,7.59
2023-02-02T02:06:21.176Z,7.59
2023-02-02T02:10:23.167Z,7.60
2023-02-02T02:14:43.505Z,7.62
2023-02-02T02:18:53.175Z,7.65
2023-02-02T02:23:35.822Z,7.66
2023-02-02T02:27:49.805Z,7.67
2023-02-02T02:31:57.593Z,7.67
2023-02-02T02:36:45.223Z,7.66
2023-02-02T02:40:53.513Z,7.66
2023-02-02T02:44:59.868Z,7.65
2023-02-02T02:49:01.936Z,7.64
2023-02-02T02:53:15.714Z,7.65
2023-02-02T02:57:54.689Z,7.66
2023-02-02T03:02:29.195Z,7.65
2023-02-02T03:06:43.777Z,7.66
2023-02-02T03:10:47.392Z,7.67
2023-02-02T03:14:49.126Z,7.68
2023-02-02T03:18:50.868Z,7.69
2023-02-02T03:22:52.640Z,7.70
2023-02-02T03:26:54.627Z,7.70
2023-02-02T03:30:58.980Z,7.69
2023-02-02T03:35:00.764Z,7.69
2023-02-02T03:39:02.613Z,7.68
2023-02-02T03:43:04.717Z,7.68
2023-02-02T03:47:06.398Z,7.65
2023-02-02T03:51:11.698Z,7.65
2023-02-02T03:55:13.587Z,7.64
2023-02-02T03:59:15.296Z,7.64
2023-02-02T04:03:17.026Z,7.66
2023-02-02T04:07:18.767Z,7.67
2023-02-02T04:11:20.560Z,7.67
2023-02-02T04:15:22.596Z,7.69
2023-02-02T04:19:24.650Z,7.70
2023-02-02T04:23:27.346Z,7.71
2023-02-02T04:27:31.696Z,7.71
2023-02-02T04:31:33.797Z,7.73
2023-02-02T04:35:35.587Z,7.72
2023-02-02T04:39:37.413Z,7.72
2023-02-02T04:43:39.123Z,7.71
2023-02-02T04:47:40.919Z,7.71
2023-02-02T04:51:42.940Z,7.71
2023-02-02T04:55:44.683Z,7.71
2023-02-02T04:59:46.395Z,7.70
2023-02-02T05:03:49.081Z,7.69
2023-02-02T05:07:50.837Z,7.68
2023-02-02T05:11:52.555Z,7.68
2023-02-02T05:15:54.374Z,7.69
2023-02-02T05:19:56.092Z,7.70
2023-02-02T05:23:58.199Z,7.69
2023-02-02T05:28:00.048Z,7.68
2023-02-02T05:32:01.881Z,7.70
2023-02-02T05:36:04.252Z,7.70
2023-02-02T05:40:06.334Z,7.71
2023-02-02T05:44:11.862Z,7.71
2023-02-02T05:48:16.821Z,7.71
2023-02-02T05:52:22.277Z,7.71
2023-02-02T05:56:24.045Z,7.70
2023-02-02T06:00:25.869Z,7.70
2023-02-02T06:04:27.646Z,7.70
2023-02-02T06:08:29.448Z,7.71
2023-02-02T06:12:31.818Z,7.72
2023-02-02T06:16:33.862Z,7.72
2023-02-02T06:20:36.737Z,7.71
2023-02-02T06:24:38.574Z,7.72
2023-02-02T06:28:40.306Z,7.71
2023-02-02T06:32:42.257Z,7.72
2023-02-02T06:36:44.035Z,7.71
2023-02-02T06:40:45.779Z,7.69
2023-02-02T06:44:47.526Z,7.67
2023-02-02T06:48:49.301Z,7.64
2023-02-02T06:52:51.832Z,7.65
2023-02-02T06:56:53.635Z,7.66
2023-02-02T07:00:55.565Z,7.67
2023-02-02T07:04:57.327Z,7.64
2023-02-02T07:09:02.974Z,7.65
2023-02-02T07:13:07.050Z,7.63
2023-02-02T07:17:08.744Z,7.63
2023-02-02T07:21:24.233Z,7.62
2023-02-02T07:25:26.465Z,7.62
2023-02-02T07:29:28.360Z,7.61
2023-02-02T07:33:30.119Z,7.61
2023-02-02T07:37:31.923Z,7.59
2023-02-02T07:41:35.620Z,7.58
2023-02-02T07:45:38.165Z,7.56
2023-02-02T07:49:40.212Z,7.56
2023-02-02T07:53:46.841Z,7.55
2023-02-02T07:57:48.666Z,7.57
2023-02-02T08:01:51.763Z,7.57
2023-02-02T08:05:53.572Z,7.57
2023-02-02T08:09:55.333Z,7.56
2023-02-02T08:13:59.425Z,7.53
2023-02-02T08:18:01.137Z,7.53
2023-02-02T08:22:02.830Z,7.53
2023-02-02T08:26:17.045Z,7.56
2023-02-02T08:30:18.996Z,7.58
2023-02-02T08:34:20.793Z,7.58
2023-02-02T08:38:24.087Z,7.60
2023-02-02T08:42:26.091Z,7.62
2023-02-02T08:46:27.928Z,7.65
2023-02-02T08:50:29.766Z,7.68
2023-02-02T08:54:31.546Z,7.69
2023-02-02T08:58:34.496Z,7.70
2023-02-02T09:02:36.310Z,7.71
2023-02-02T09:06:39.506Z,7.73
2023-02-02T09:10:41.252Z,7.74
2023-02-02T09:14:42.979Z,7.75
2023-02-02T09:18:45.158Z,7.74
2023-02-02T09:22:48.106Z,7.74
2023-02-02T09:26:49.852Z,7.73
2023-02-02T09:30:51.808Z,7.73
2023-02-02T09:34:53.527Z,7.74
2023-02-02T09:38:55.372Z,7.77
2023-02-02T09:43:31.293Z,7.82
2023-02-02T09:47:33.034Z,7.89
2023-02-02T09:51:40.890Z,7.95
2023-02-02T09:55:52.903Z,8.00
2023-02-02T09:59:55.110Z,8.02
2023-02-02T10:04:02.169Z,8.07
2023-02-02T10:08:11.633Z,8.08
2023-02-02T10:12:24.293Z,8.12
2023-02-02T10:16:27.088Z,8.12
2023-02-02T10:21:00.991Z,8.13
2023-02-02T10:25:02.852Z,8.12
2023-02-02T10:29:13.988Z,8.13
2023-02-02T10:33:29.942Z,8.14
2023-02-02T10:37:58.699Z,8.15
2023-02-02T10:42:35.141Z,8.14
2023-02-02T10:46:45.637Z,8.14
2023-02-02T10:50:50.884Z,8.15
2023-02-02T10:55:01.022Z,8.18
2023-02-02T10:59:14.543Z,8.20
2023-02-02T11:03:19.800Z,8.23
2023-02-02T11:07:21.560Z,8.27
2023-02-02T11:11:27.846Z,8.29
2023-02-02T11:15:31.113Z,8.29
2023-02-02T11:19:35.108Z,8.29
2023-02-02T11:23:37.381Z,8.30
2023-02-02T11:27:41.550Z,8.30
2023-02-02T11:31:44.896Z,8.30
2023-02-02T11:36:01.658Z,8.32
2023-02-02T11:40:31.726Z,8.33
2023-02-02T11:44:35.937Z,8.33
2023-02-02T11:48:39.938Z,8.30
2023-02-02T11:52:46.222Z,8.30
2023-02-02T11:56:54.565Z,8.30
2023-02-02T12:01:03.923Z,8.30
2023-02-02T12:05:11.709Z,8.30
2023-02-02T12:09:26.166Z,8.32
2023-02-02T12:13:55.570Z,8.32
2023-02-02T12:18:10.592Z,8.31
2023-02-02T12:22:30.415Z,8.29
2023-02-02T12:26:37.201Z,8.27
2023-02-02T12:31:06.973Z,8.25
2023-02-02T12:35:36.227Z,8.21
2023-02-02T12:39:51.481Z,8.14
2023-02-02T12:44:05.451Z,8.08
2023-02-02T12:48:44.733Z,7.97
2023-02-02T12:52:49.291Z,7.88
2023-02-02T12:57:10.558Z,7.82
2023-02-02T13:01:42.636Z,7.75
2023-02-02T13:06:37.631Z,7.68
2023-02-02T13:11:08.361Z,7.62
2023-02-02T13:15:16.485Z,7.58
2023-02-02T13:19:31.877Z,7.53
2023-02-02T13:23:45.900Z,7.51
2023-02-02T13:27:49.830Z,7.50
2023-02-02T13:32:30.915Z,7.49
2023-02-02T13:36:37.666Z,7.46
2023-02-02T13:40:41.499Z,7.46
2023-02-02T13:44:49.892Z,7.43
2023-02-02T13:48:57.663Z,7.44
2023-02-02T13:53:20.824Z,7.43
2023-02-02T13:57:44.592Z,7.42
2023-02-02T14:01:50.093Z,7.41
2023-02-02T14:06:10.196Z,7.41
2023-02-02T14:10:34.641Z,7.38
2023-02-02T14:14:40.006Z,7.38
2023-02-02T14:18:49.266Z,7.37
2023-02-02T14:22:52.517Z,7.39
2023-02-02T14:26:57.646Z,7.40
2023-02-02T14:31:34.847Z,7.41
2023-02-02T14:35:45.844Z,7.43
2023-02-02T14:39:59.504Z,7.44
2023-02-02T14:44:05.424Z,7.45
2023-02-02T14:48:07.115Z,7.49
2023-02-02T14:52:22.308Z,7.51
2023-02-02T14:56:49.984Z,7.52
2023-02-02T15:01:00.388Z,7.55
2023-02-02T15:05:27.461Z,7.56
2023-02-02T15:09:39.479Z,7.57
2023-02-02T15:13:45.610Z,7.60
2023-02-02T15:18:00.882Z,7.67
2023-02-02T15:22:37.362Z,7.71
2023-02-02T15:26:42.902Z,7.75
2023-02-02T15:30:51.445Z,7.78
2023-02-02T15:34:58.062Z,7.82
2023-02-02T15:39:04.266Z,7.84
2023-02-02T15:43:09.407Z,7.85
2023-02-02T15:47:29.014Z,7.88
2023-02-02T15:51:31.329Z,7.89
2023-02-02T15:55:35.778Z,7.90
2023-02-02T15:59:42.902Z,7.92
2023-02-02T16:03:55.534Z,7.93
2023-02-02T16:08:05.572Z,7.93
2023-02-02T16:12:18.282Z,7.93
2023-02-02T16:16:29.118Z,7.93
2023-02-02T16:20:37.300Z,7.91
2023-02-02T16:24:47.008Z,7.89
2023-02-02T16:28:48.775Z,7.88
2023-02-02T16:32:50.535Z,7.88
2023-02-02T16:37:13.310Z,7.88
2023-02-02T16:41:29.762Z,7.89
2023-02-02T16:45:46.402Z,7.89
2023-02-02T16:49:48.273Z,7.91
2023-02-02T16:54:11.931Z,7.93
2023-02-02T16:58:19.770Z,7.93
2023-02-02T17:02:35.215Z,7.97
2023-02-02T17:06:51.344Z,7.99
2023-02-02T17:11:19.410Z,8.01
2023-02-02T17:15:21.057Z,8.03
2023-02-02T17:19:22.986Z,8.07
2023-02-02T17:23:28.559Z,8.09
2023-02-02T17:27:34.138Z,8.12
2023-02-02T17:31:36.733Z,8.15
2023-02-02T17:35:53.259Z,8.18
2023-02-02T17:39:56.736Z,8.20
2023-02-02T17:43:58.643Z,8.23
2023-02-02T17:48:01.006Z,8.25
2023-02-02T17:52:02.748Z,8.26
2023-02-02T17:56:04.755Z,8.29
2023-02-02T18:00:07.028Z,8.29
2023-02-02T18:04:13.063Z,8.32
2023-02-02T18:08:15.135Z,8.32
2023-02-02T18:12:16.881Z,8.35
2023-02-02T18:16:19.943Z,8.35
2023-02-02T18:20:21.720Z,8.36
2023-02-02T18:24:23.427Z,8.39
2023-02-02T18:28:25.794Z,8.40
2023-02-02T18:32:27.553Z,8.40
2023-02-02T18:36:29.359Z,8.42
2023-02-02T18:40:31.071Z,8.42
2023-02-02T18:44:34.582Z,8.42
2023-02-02T18:48:36.777Z,8.42
2023-02-02T18:52:38.594Z,8.42
2023-02-02T18:56:40.388Z,8.43
2023-02-02T19:00:42.132Z,8.45
2023-02-02T19:05:04.597Z,8.44
2023-02-02T19:09:06.871Z,8.44
2023-02-02T19:13:20.364Z,8.45
2023-02-02T19:17:24.640Z,8.46
2023-02-02T19:21:30.549Z,8.47
2023-02-02T19:25:32.529Z,8.49
2023-02-02T19:29:38.050Z,8.52
2023-02-02T19:33:48.373Z,8.54
2023-02-02T19:37:57.839Z,8.55
2023-02-02T19:42:00.705Z,8.58
2023-02-02T19:46:03.371Z,8.60
2023-02-02T19:50:16.572Z,8.61
2023-02-02T19:54:25.741Z,8.64
2023-02-02T19:58:37.267Z,8.65
2023-02-02T20:02:49.029Z,8.65
2023-02-02T20:06:59.204Z,8.66
2023-02-02T20:11:09.003Z,8.67
2023-02-02T20:15:28.305Z,8.69
2023-02-02T20:19:36.046Z,8.69
2023-02-02T20:23:44.862Z,8.69
2023-02-02T20:27:46.601Z,8.70
2023-02-02T20:31:50.197Z,8.70
2023-02-02T20:35:52.030Z,8.69
2023-02-02T20:40:23.387Z,8.70
2023-02-02T20:44:27.000Z,8.69
2023-02-02T20:48:29.345Z,8.68
2023-02-02T20:52:32.683Z,8.67
2023-02-02T20:56:34.453Z,8.67
2023-02-02T21:00:36.240Z,8.64
2023-02-02T21:04:39.090Z,8.65
2023-02-02T21:08:40.809Z,8.65
2023-02-02T21:12:42.583Z,8.68
2023-02-02T21:16:44.625Z,8.69
2023-02-02T21:20:46.379Z,8.70
2023-02-02T21:24:48.255Z,8.71
2023-02-02T21:28:50.027Z,8.72
2023-02-02T21:32:52.023Z,8.69
2023-02-02T21:36:58.803Z,8.69
2023-02-02T21:41:00.962Z,8.71
2023-02-02T21:45:21.119Z,8.70
2023-02-02T21:49:26.414Z,8.69
2023-02-02T21:53:28.338Z,8.68
2023-02-02T21:57:37.445Z,8.66
2023-02-02T22:01:40.241Z,8.64
2023-02-02T22:05:41.980Z,8.64
2023-02-02T22:09:45.304Z,8.62
2023-02-02T22:13:48.599Z,8.60
2023-02-02T22:17:50.409Z,8.58
2023-02-02T22:21:52.849Z,8.55
2023-02-02T22:25:56.792Z,8.52
2023-02-02T22:30:10.819Z,8.48
2023-02-02T22:34:12.522Z,8.45
2023-02-02T22:38:19.989Z,8.43
2023-02-02T22:42:21.712Z,8.44
2023-02-02T22:46:23.663Z,8.44
2023-02-02T22:50:30.383Z,8.45
2023-02-02T22:54:32.277Z,8.45
2023-02-02T22:58:34.056Z,8.45
2023-02-02T23:02:35.802Z,8.45
2023-02-02T23:06:37.505Z,8.45
2023-02-02T23:10:39.357Z,8.46
2023-02-02T23:14:41.095Z,8.47
2023-02-02T23:18:42.802Z,8.48
2023-02-02T23:22:44.925Z,8.52
2023-02-02T23:26:46.640Z,8.52
2023-02-02T23:30:48.426Z,8.52
2023-02-02T23:34:50.347Z,8.54
2023-02-02T23:38:52.087Z,8.55
2023-02-02T23:42:53.773Z,8.56
2023-02-02T23:46:55.870Z,8.57
2023-02-02T23:50:59.167Z,8.60
2023-02-02T23:55:02.309Z,8.61
2023-02-02T23:59:04.070Z,8.61
